Time;durP1;ratioP1;P1;durP2;ratioP2;P2;SDS_P1;SDS_P2;PMS_P1;PMS_P2;Temp;Humidity;BMP_temperature;BMP_pressure;BME280_temperature;BME280_humidity;BME280_pressure;Samples;Min_cycle;Max_cycle;Signal;HPM_P1;HPM_P2
2021/06/10 00:01:17;;;;;;;7.03;6.53;;;;;;;17.20;100.00;100924.34;5050589;28;20313;-73
2021/06/10 00:03:42;;;;;;;7.20;6.60;;;;;;;17.30;100.00;100919.53;5050768;28;20171;-73
2021/06/10 00:06:08;;;;;;;6.50;6.00;;;;;;;17.28;100.00;100928.19;5050768;28;20392;-73
2021/06/10 00:08:34;;;;;;;7.27;6.73;;;;;;;17.26;100.00;100922.19;5050534;28;20175;-73
2021/06/10 00:11:00;;;;;;;7.37;6.77;;;;;;;17.21;100.00;100923.25;5050720;28;20273;-73
2021/06/10 00:13:25;;;;;;;7.67;7.07;;;;;;;17.15;100.00;100926.56;5050516;28;20608;-73
2021/06/10 00:15:50;;;;;;;7.60;7.00;;;;;;;17.28;100.00;100921.84;5050566;28;20226;-73
2021/06/10 00:18:16;;;;;;;8.30;7.70;;;;;;;17.27;100.00;100920.25;5050343;28;20649;-73
2021/06/10 00:20:41;;;;;;;7.80;7.20;;;;;;;17.16;100.00;100923.44;5050497;28;20191;-73
2021/06/10 00:23:08;;;;;;;7.70;7.00;;;;;;;17.06;100.00;100918.38;5050626;28;20237;-73
2021/06/10 00:25:34;;;;;;;8.90;8.20;;;;;;;17.03;100.00;100923.78;5051141;28;20167;-73
2021/06/10 00:27:59;;;;;;;7.60;7.03;;;;;;;16.93;100.00;100922.28;5050372;28;20518;-73
2021/06/10 00:30:26;;;;;;;7.83;7.13;;;;;;;16.87;100.00;100929.97;5050353;28;20183;-73
2021/06/10 00:32:51;;;;;;;7.83;7.23;;;;;;;16.83;100.00;100919.97;5050690;28;20167;-73
2021/06/10 00:35:22;;;;;;;9.23;6.87;;;;;;;16.78;100.00;100920.16;5050390;28;20179;-73
2021/06/10 00:37:48;;;;;;;7.07;6.47;;;;;;;16.73;100.00;100912.09;5050400;28;20155;-70
2021/06/10 00:40:14;;;;;;;7.43;6.93;;;;;;;16.68;100.00;100920.59;5050083;28;20178;-73
2021/06/10 00:42:40;;;;;;;7.67;7.07;;;;;;;16.69;100.00;100917.50;5050879;28;20175;-73
2021/06/10 00:45:14;;;;;;;7.73;7.13;;;;;;;16.70;100.00;100919.13;5054195;28;20179;-73
2021/06/10 00:47:40;;;;;;;6.83;6.30;;;;;;;16.70;100.00;100915.56;5054046;28;20171;-73
2021/06/10 00:50:06;;;;;;;8.67;7.97;;;;;;;16.64;100.00;100917.69;5054073;28;20175;-73
2021/06/10 00:52:31;;;;;;;8.57;7.87;;;;;;;16.62;100.00;100912.50;5054116;28;20167;-73
2021/06/10 00:54:57;;;;;;;9.53;8.73;;;;;;;16.60;100.00;100914.78;5054007;28;20187;-73
2021/06/10 00:57:22;;;;;;;8.10;7.47;;;;;;;16.59;100.00;100913.19;5053845;28;20175;-73
2021/06/10 00:59:48;;;;;;;8.40;7.80;;;;;;;16.56;100.00;100908.34;5053823;28;20171;-73
2021/06/10 01:02:14;;;;;;;7.67;7.07;;;;;;;16.50;100.00;100906.97;5053804;28;20202;-73
2021/06/10 01:04:39;;;;;;;8.97;8.17;;;;;;;16.45;100.00;100909.13;5053949;28;20175;-73
2021/06/10 01:07:12;;;;;;;8.77;8.07;;;;;;;16.38;100.00;100906.91;5054342;28;20544;-73
2021/06/10 01:09:48;;;;;;;7.27;6.77;;;;;;;16.38;100.00;100912.44;5055381;28;20165;-73
2021/06/10 01:12:21;;;;;;;8.23;7.53;;;;;;;16.39;100.00;100918.75;5036055;28;20543;-73
2021/06/10 01:15:01;;;;;;;8.33;7.73;;;;;;;16.46;100.00;100914.28;5053695;28;20179;-73
2021/06/10 01:17:28;;;;;;;7.00;6.37;;;;;;;16.52;100.00;100912.94;5053561;28;20159;-73
2021/06/10 01:20:13;;;;;;;8.43;7.47;;;;;;;16.58;100.00;100922.59;5053527;28;20656;-73
2021/06/10 01:22:43;;;;;;;8.57;7.87;;;;;;;16.59;100.00;100910.44;5053372;28;20224;-73
2021/06/10 01:25:16;;;;;;;6.43;5.87;;;;;;;16.58;100.00;100911.56;5053813;28;20619;-73
2021/06/10 01:27:47;;;;;;;6.43;5.93;;;;;;;16.58;100.00;100911.56;5053268;28;20175;-73
2021/06/10 01:30:18;;;;;;;7.40;6.87;;;;;;;16.52;100.00;100910.19;5053442;28;20217;-73
2021/06/10 01:32:57;;;;;;;8.13;7.53;;;;;;;16.54;100.00;100913.41;5053594;28;20182;-73
2021/06/10 01:35:25;;;;;;;7.17;6.57;;;;;;;16.55;100.00;100905.94;5053170;28;20179;-73
2021/06/10 01:37:54;;;;;;;8.20;7.57;;;;;;;16.51;100.00;100913.28;5053054;28;20202;-73
2021/06/10 01:40:22;;;;;;;7.57;7.07;;;;;;;16.50;100.00;100918.00;5052721;28;20690;-73
2021/06/10 01:42:48;;;;;;;7.43;6.93;;;;;;;16.46;100.00;100914.28;5053117;28;20175;-73
2021/06/10 01:45:14;;;;;;;10.07;8.20;;;;;;;16.45;100.00;100901.66;5053057;28;20547;-73
2021/06/10 01:47:42;;;;;;;8.13;7.43;;;;;;;16.43;100.00;100906.69;5052952;28;20179;-73
2021/06/10 01:50:09;;;;;;;8.20;7.60;;;;;;;16.44;100.00;100897.28;5053042;28;20182;-73
2021/06/10 01:52:36;;;;;;;7.20;6.70;;;;;;;16.44;100.00;100899.22;5053227;28;20205;-73
2021/06/10 01:55:03;;;;;;;7.10;6.40;;;;;;;16.47;100.00;100898.53;5052621;28;20180;-73
2021/06/10 01:57:31;;;;;;;9.93;9.03;;;;;;;16.51;100.00;100893.97;5052687;28;20179;-73
2021/06/10 01:59:57;;;;;;;8.47;7.67;;;;;;;16.48;100.00;100891.88;5052635;28;20553;-73
2021/06/10 02:02:23;;;;;;;8.07;7.30;;;;;;;16.43;100.00;100887.38;5052613;28;20678;-73
2021/06/10 02:04:50;;;;;;;8.33;7.63;;;;;;;16.42;100.00;100885.78;5068144;28;21072;-73
2021/06/10 02:07:16;;;;;;;9.30;8.60;;;;;;;16.45;100.00;100881.53;5052595;28;20262;-73
2021/06/10 02:09:42;;;;;;;7.80;7.20;;;;;;;16.36;100.00;100879.69;5052476;28;20642;-73
2021/06/10 02:12:08;;;;;;;8.53;7.93;;;;;;;16.35;100.00;100874.50;5052595;28;20181;-73
2021/06/10 02:14:34;;;;;;;8.53;7.83;;;;;;;16.26;100.00;100876.53;5067732;28;20262;-73
2021/06/10 02:17:00;;;;;;;6.80;6.30;;;;;;;16.21;100.00;100874.81;5052391;28;20191;-73
2021/06/10 02:19:26;;;;;;;8.43;7.73;;;;;;;16.20;100.00;100878.72;5052439;28;20186;-73
2021/06/10 02:21:51;;;;;;;9.10;6.70;;;;;;;16.23;100.00;100871.72;5052261;28;20199;-73
2021/06/10 02:24:16;;;;;;;7.83;7.33;;;;;;;16.26;100.00;100862.75;5052615;28;20692;-73
2021/06/10 02:26:43;;;;;;;8.53;7.93;;;;;;;16.28;100.00;100868.72;5052171;28;20179;-73
2021/06/10 02:29:08;;;;;;;7.40;6.70;;;;;;;16.26;100.00;100868.25;5052313;28;20237;-73
2021/06/10 02:31:34;;;;;;;8.17;7.47;;;;;;;16.34;100.00;100870.13;5052179;28;20630;-73
2021/06/10 02:34:02;;;;;;;8.17;7.53;;;;;;;16.36;100.00;100868.66;5052751;28;20175;-73
2021/06/10 02:36:28;;;;;;;8.43;7.80;;;;;;;16.44;100.00;100869.69;5052020;28;20175;-73
2021/06/10 02:38:59;;;;;;;10.00;9.03;;;;;;;16.38;100.00;100865.56;5051967;28;20210;-73
2021/06/10 02:41:29;;;;;;;8.83;8.13;;;;;;;16.29;100.00;100870.34;5052069;28;20658;-73
2021/06/10 02:43:57;;;;;;;9.07;8.37;;;;;;;16.25;100.00;100866.66;5052017;28;20221;-73
2021/06/10 02:46:23;;;;;;;10.37;9.47;;;;;;;16.31;100.00;100871.59;5051715;28;20175;-73
2021/06/10 02:48:52;;;;;;;11.07;9.37;;;;;;;16.37;100.00;100872.22;5051881;28;20230;-73
2021/06/10 02:51:18;;;;;;;9.73;9.03;;;;;;;16.40;100.00;100865.22;5051800;28;20176;-73
2021/06/10 02:53:45;;;;;;;8.97;8.27;;;;;;;16.37;100.00;100872.22;5051736;28;20194;-73
2021/06/10 02:56:12;;;;;;;9.13;8.33;;;;;;;16.33;100.00;100874.00;5051742;28;20522;-73
2021/06/10 02:58:40;;;;;;;9.27;8.47;;;;;;;16.32;100.00;100866.91;5051646;28;20784;-73
2021/06/10 03:01:06;;;;;;;8.73;8.03;;;;;;;16.32;100.00;100872.41;5051534;28;20217;-73
2021/06/10 03:03:35;;;;;;;7.93;7.33;;;;;;;16.33;100.00;100872.06;5051582;28;20175;-73
2021/06/10 03:06:02;;;;;;;8.23;7.63;;;;;;;16.07;100.00;100866.00;5051099;28;20217;-73
2021/06/10 03:08:29;;;;;;;8.90;8.20;;;;;;;15.82;100.00;100870.59;5051284;28;20670;-73
2021/06/10 03:11:00;;;;;;;9.43;8.73;;;;;;;15.80;100.00;100872.06;5051491;28;20179;-73
2021/06/10 03:13:28;;;;;;;9.70;8.90;;;;;;;15.62;100.00;100874.13;5051462;28;20520;-73
2021/06/10 03:15:54;;;;;;;10.37;9.53;;;;;;;15.47;100.00;100869.97;5051444;28;20167;-73
2021/06/10 03:18:21;;;;;;;10.07;9.27;;;;;;;15.32;100.00;100874.13;5051185;28;20181;-70
2021/06/10 03:20:47;;;;;;;9.60;8.90;;;;;;;15.33;100.00;100877.69;5051108;28;20195;-71
2021/06/10 03:23:13;;;;;;;9.90;8.57;;;;;;;15.40;100.00;100872.47;5051163;28;20228;-71
2021/06/10 03:25:40;;;;;;;10.10;9.30;;;;;;;15.55;100.00;100876.59;5051259;28;20661;-71
2021/06/10 03:28:06;;;;;;;9.33;8.53;;;;;;;15.62;100.00;100868.63;5051138;28;20179;-71
2021/06/10 03:30:33;;;;;;;8.07;7.47;;;;;;;15.58;100.00;100868.47;5051106;28;20179;-71
2021/06/10 03:33:00;;;;;;;8.17;7.57;;;;;;;15.59;100.00;100872.00;5050944;28;20272;-71
2021/06/10 03:35:26;;;;;;;9.53;8.83;;;;;;;15.79;100.00;100863.00;5051155;28;20175;-71
2021/06/10 03:37:52;;;;;;;9.40;8.70;;;;;;;15.99;100.00;100869.63;5050810;28;20180;-71
2021/06/10 03:40:19;;;;;;;8.70;8.00;;;;;;;15.85;100.00;100871.88;5050778;28;20171;-71
2021/06/10 03:42:45;;;;;;;8.73;8.03;;;;;;;15.52;100.00;100874.50;5051023;28;20216;-71
2021/06/10 03:45:13;;;;;;;8.20;7.60;;;;;;;15.29;100.00;100874.78;5050886;28;20179;-71
2021/06/10 03:47:38;;;;;;;9.57;8.77;;;;;;;15.05;100.00;100878.16;5050710;28;20677;-71
2021/06/10 03:50:07;;;;;;;8.80;8.20;;;;;;;14.89;100.00;100879.84;5050933;28;20175;-71
2021/06/10 03:52:32;;;;;;;8.60;7.97;;;;;;;14.96;100.00;100882.91;5050812;28;20175;-71
2021/06/10 03:54:58;;;;;;;8.93;8.23;;;;;;;15.26;100.00;100888.41;5050807;28;20270;-70
2021/06/10 03:57:24;;;;;;;8.20;7.60;;;;;;;15.39;100.00;100898.41;5050964;28;20171;-71
2021/06/10 03:59:49;;;;;;;7.80;7.10;;;;;;;15.66;100.00;100897.13;5050622;28;20186;-70
2021/06/10 04:02:15;;;;;;;7.53;6.93;;;;;;;15.81;100.00;100893.78;5050808;28;20203;-70
2021/06/10 04:04:40;;;;;;;9.83;6.87;;;;;;;15.92;100.00;100891.44;5050881;28;20179;-70
2021/06/10 04:07:06;;;;;;;8.37;7.70;;;;;;;15.93;100.00;100893.03;5050530;28;20568;-71
2021/06/10 04:09:31;;;;;;;7.87;7.37;;;;;;;15.94;100.00;100892.72;5050920;28;20186;-73
2021/06/10 04:11:56;;;;;;;7.73;7.03;;;;;;;16.01;100.00;100887.44;5050634;28;20244;-73
2021/06/10 04:14:22;;;;;;;8.00;7.37;;;;;;;16.01;100.00;100890.19;5050603;28;20176;-73
2021/06/10 04:16:47;;;;;;;8.23;7.60;;;;;;;16.01;100.00;100887.44;5051332;28;20225;-73
2021/06/10 04:19:13;;;;;;;7.60;7.00;;;;;;;16.00;100.00;100890.53;5054750;28;20179;-73
2021/06/10 04:21:38;;;;;;;8.10;7.50;;;;;;;16.01;100.00;100884.69;5054720;28;20264;-73
2021/06/10 04:24:04;;;;;;;7.63;7.03;;;;;;;16.06;100.00;100890.03;5054629;28;20181;-73
2021/06/10 04:26:30;;;;;;;7.73;7.13;;;;;;;16.10;100.00;100894.84;5054713;28;20387;-73
2021/06/10 04:28:55;;;;;;;7.23;6.63;;;;;;;16.15;100.00;100889.13;5054503;28;20526;-73
2021/06/10 04:31:21;;;;;;;6.83;6.33;;;;;;;16.19;100.00;100885.34;5054656;28;20171;-73
2021/06/10 04:33:47;;;;;;;7.13;6.57;;;;;;;16.21;100.00;100885.03;5054383;28;20530;-73
2021/06/10 04:36:13;;;;;;;7.03;6.53;;;;;;;16.20;100.00;100884.22;5054322;28;20171;-73
2021/06/10 04:38:39;;;;;;;8.00;7.40;;;;;;;16.28;100.00;100888.84;5054322;28;20258;-73
2021/06/10 04:41:05;;;;;;;7.90;7.17;;;;;;;16.43;100.00;100872.78;5054067;28;20286;-73
2021/06/10 04:43:30;;;;;;;8.40;7.20;;;;;;;16.55;100.00;100884.66;5054281;28;20262;-73
2021/06/10 04:45:56;;;;;;;8.20;7.60;;;;;;;16.61;100.00;100879.72;5054325;28;20652;-73
2021/06/10 04:48:22;;;;;;;7.47;6.90;;;;;;;16.61;100.00;100879.72;5054359;28;20179;-73
2021/06/10 04:50:48;;;;;;;7.47;6.87;;;;;;;16.67;100.00;100878.41;5054199;28;20175;-73
2021/06/10 04:53:14;;;;;;;7.33;6.73;;;;;;;16.73;100.00;100879.78;5053635;28;20392;-73
2021/06/10 04:55:40;;;;;;;8.03;7.43;;;;;;;16.65;100.00;100886.19;5062203;28;20186;-73
2021/06/10 04:58:05;;;;;;;9.87;9.17;;;;;;;16.58;100.00;100878.47;5072372;28;20175;-73
2021/06/10 05:00:33;;;;;;;9.00;8.30;;;;;;;16.68;100.00;100888.31;5073587;28;20202;-73
2021/06/10 05:02:58;;;;;;;10.13;9.33;;;;;;;16.79;100.00;100892.25;5055880;28;20179;-73
2021/06/10 05:05:24;;;;;;;9.70;9.00;;;;;;;16.96;100.00;100885.72;5053939;28;20611;-73
2021/06/10 05:07:49;;;;;;;10.60;9.70;;;;;;;17.17;100.00;100882.81;5053634;28;20175;-73
2021/06/10 05:10:14;;;;;;;8.83;8.23;;;;;;;17.33;99.66;100888.47;5053793;28;20175;-73
2021/06/10 05:12:40;;;;;;;9.53;8.83;;;;;;;17.42;98.97;100895.50;5053710;28;20179;-73
2021/06/10 05:15:06;;;;;;;8.83;8.13;;;;;;;17.52;96.96;100883.97;5053880;28;20368;-73
2021/06/10 05:17:31;;;;;;;8.73;8.03;;;;;;;17.60;96.05;100879.47;5053452;28;20180;-73
2021/06/10 05:19:57;;;;;;;8.13;7.43;;;;;;;17.66;96.11;100888.34;5053613;28;20236;-73
2021/06/10 05:22:22;;;;;;;8.57;7.97;;;;;;;17.70;96.28;100890.06;5053463;28;20202;-72
2021/06/10 05:24:48;;;;;;;8.47;7.83;;;;;;;17.75;95.86;100873.25;5035682;28;20597;-73
2021/06/10 05:27:13;;;;;;;8.77;8.13;;;;;;;17.83;96.20;100880.59;5053655;28;20605;-73
2021/06/10 05:29:39;;;;;;;8.50;7.83;;;;;;;17.91;96.21;100881.59;5052632;28;20183;-73
2021/06/10 05:32:06;;;;;;;8.73;8.10;;;;;;;17.96;95.41;100886.91;5053597;28;20496;-73
2021/06/10 05:34:32;;;;;;;8.77;8.07;;;;;;;18.03;95.47;100889.06;5053355;28;20209;-79
2021/06/10 05:36:57;;;;;;;8.30;7.70;;;;;;;18.08;94.76;100894.34;5053197;28;20176;-75
2021/06/10 05:39:23;;;;;;;7.77;7.20;;;;;;;18.12;93.70;100892.50;5052989;28;20172;-76
2021/06/10 05:41:48;;;;;;;7.07;6.47;;;;;;;18.08;93.17;100900.69;5053165;28;20528;-74
2021/06/10 05:44:13;;;;;;;9.93;7.70;;;;;;;18.03;92.53;100898.16;5053297;28;20171;-72
2021/06/10 05:46:40;;;;;;;8.10;7.47;;;;;;;17.93;92.93;100897.84;5053079;28;20218;-72
2021/06/10 05:49:05;;;;;;;7.33;6.77;;;;;;;17.83;93.27;100899.94;5052988;28;20254;-73
2021/06/10 05:51:31;;;;;;;8.20;7.60;;;;;;;17.81;94.31;100895.94;5053005;28;20274;-72
2021/06/10 05:53:56;;;;;;;7.87;7.27;;;;;;;17.75;94.98;100906.41;5052865;28;20189;-72
2021/06/10 05:56:21;;;;;;;7.57;6.97;;;;;;;17.66;96.15;100910.44;5052820;28;20173;-72
2021/06/10 05:58:47;;;;;;;8.63;7.93;;;;;;;17.59;97.16;100904.69;5052817;28;20179;-72
2021/06/10 06:01:12;;;;;;;7.50;7.00;;;;;;;17.62;97.75;100904.78;5052577;28;20218;-72
2021/06/10 06:03:39;;;;;;;7.53;6.97;;;;;;;17.59;97.35;100899.16;5068139;28;20199;-72
2021/06/10 06:06:05;;;;;;;7.53;7.00;;;;;;;17.60;97.58;100904.31;5052601;28;20179;-72
2021/06/10 06:08:31;;;;;;;7.83;7.23;;;;;;;17.63;97.14;100906.38;5067923;28;20179;-72
2021/06/10 06:10:56;;;;;;;7.37;6.77;;;;;;;17.70;97.26;100905.84;5052617;28;20528;-72
2021/06/10 06:13:32;;;;;;;5.67;5.27;;;;;;;17.76;97.34;100909.97;5052869;28;20179;-72
2021/06/10 06:16:05;;;;;;;6.33;5.87;;;;;;;17.78;96.79;100902.13;5052522;28;20638;-72
2021/06/10 06:18:30;;;;;;;7.30;6.70;;;;;;;17.87;96.95;100907.53;5052604;28;20171;-72
2021/06/10 06:20:55;;;;;;;8.03;7.40;;;;;;;17.97;96.87;100907.06;5052284;28;20288;-72
2021/06/10 06:23:21;;;;;;;9.17;6.60;;;;;;;18.07;96.48;100906.53;5052475;28;20209;-72
2021/06/10 06:25:46;;;;;;;6.17;5.67;;;;;;;18.20;96.78;100913.66;5052366;28;20182;-72
2021/06/10 06:28:11;;;;;;;6.23;5.77;;;;;;;18.29;95.07;100922.63;5067553;28;20171;-72
2021/06/10 06:30:37;;;;;;;6.77;6.27;;;;;;;18.43;94.99;100919.44;5052266;28;20228;-72
2021/06/10 06:33:02;;;;;;;7.10;6.57;;;;;;;18.60;94.30;100921.09;5052250;28;20180;-72
2021/06/10 06:35:27;;;;;;;7.30;6.80;;;;;;;18.68;92.37;100925.72;5052233;28;20565;-73
2021/06/10 06:37:53;;;;;;;5.67;5.27;;;;;;;18.74;91.90;100918.75;5052151;28;20265;-72
2021/06/10 06:40:24;;;;;;;6.53;5.93;;;;;;;18.80;91.75;100920.06;5051113;28;20175;-72
2021/06/10 06:42:49;;;;;;;6.90;6.30;;;;;;;18.89;92.11;100926.25;5052223;28;20167;-72
2021/06/10 06:45:15;;;;;;;7.60;6.90;;;;;;;19.00;92.23;100930.13;5052122;28;20174;-73
2021/06/10 06:47:40;;;;;;;6.53;6.03;;;;;;;19.10;91.71;100925.22;5053504;28;20405;-72
2021/06/10 06:50:06;;;;;;;12.03;6.40;;;;;;;19.19;91.86;100932.16;5052616;28;20482;-73
2021/06/10 06:52:31;;;;;;;7.50;6.90;;;;;;;19.38;92.11;100928.66;5052014;28;20171;-72
2021/06/10 06:54:56;;;;;;;4.50;4.10;;;;;;;19.45;88.75;100937.16;5051849;28;20266;-72
2021/06/10 06:57:22;;;;;;;7.40;6.90;;;;;;;19.49;89.06;100924.19;5033788;28;20198;-72
2021/06/10 06:59:47;;;;;;;6.03;5.53;;;;;;;19.58;89.60;100927.63;5051622;28;20596;-73
2021/06/10 07:02:12;;;;;;;6.30;5.90;;;;;;;19.59;89.96;100923.66;5051680;28;20193;-72
2021/06/10 07:04:38;;;;;;;6.00;5.57;;;;;;;19.64;90.35;100928.13;5051626;28;20251;-72
2021/06/10 07:07:03;;;;;;;7.07;6.47;;;;;;;19.66;89.70;100917.47;5067127;28;20183;-72
2021/06/10 07:09:29;;;;;;;7.60;7.00;;;;;;;19.77;90.54;100918.53;5051468;28;20202;-73
2021/06/10 07:11:54;;;;;;;7.30;6.70;;;;;;;19.88;89.27;100924.31;5051756;28;20175;-73
2021/06/10 07:14:19;;;;;;;8.33;7.50;;;;;;;19.95;89.10;100921.69;5051491;28;20270;-72
2021/06/10 07:16:45;;;;;;;6.63;6.13;;;;;;;19.92;88.46;100922.41;5066622;28;20214;-72
2021/06/10 07:19:10;;;;;;;6.87;6.17;;;;;;;19.99;89.02;100921.78;5051472;28;20182;-72
2021/06/10 07:21:48;;;;;;;6.30;5.70;;;;;;;20.03;88.82;100922.66;5050435;28;20214;-72
2021/06/10 07:24:14;;;;;;;7.47;6.97;;;;;;;20.12;88.03;100926.84;5050795;28;20206;-73
2021/06/10 07:26:43;;;;;;;7.60;7.10;;;;;;;20.17;88.19;100926.53;5050580;28;20213;-73
2021/06/10 07:29:08;;;;;;;8.17;7.47;;;;;;;20.27;87.51;100919.59;5050545;28;20211;-73
2021/06/10 07:31:34;;;;;;;7.43;6.83;;;;;;;20.43;86.75;100927.88;5050611;28;20203;-73
2021/06/10 07:34:02;;;;;;;7.83;7.03;;;;;;;20.60;87.02;100932.97;5050652;28;20616;-73
2021/06/10 07:36:27;;;;;;;7.70;7.10;;;;;;;20.60;84.26;100921.88;5050404;28;20514;-73
2021/06/10 07:38:53;;;;;;;7.67;7.17;;;;;;;20.59;84.70;100930.56;5050488;28;20225;-73
2021/06/10 07:41:19;;;;;;;7.63;7.07;;;;;;;20.63;84.26;100928.66;5050130;28;20751;-73
2021/06/10 07:43:45;;;;;;;7.60;7.00;;;;;;;20.66;84.08;100925.94;5050517;28;20202;-73
2021/06/10 07:46:10;;;;;;;6.93;6.43;;;;;;;20.68;84.02;100931.91;5050339;28;20638;-73
2021/06/10 07:48:36;;;;;;;8.80;8.20;;;;;;;20.79;84.85;100930.16;5050270;28;20183;-73
2021/06/10 07:51:04;;;;;;;9.27;8.57;;;;;;;20.88;83.05;100934.69;5050289;28;20179;-73
2021/06/10 07:53:30;;;;;;;7.90;7.30;;;;;;;20.93;82.03;100937.16;5050171;28;20175;-73
2021/06/10 07:55:55;;;;;;;6.70;6.20;;;;;;;21.01;82.67;100936.09;5050668;28;20183;-73
2021/06/10 07:58:21;;;;;;;5.63;5.13;;;;;;;21.13;84.75;100933.16;5050516;28;20204;-73
2021/06/10 08:00:47;;;;;;;8.00;7.40;;;;;;;21.18;84.59;100932.81;5050128;28;20361;-73
2021/06/10 08:03:12;;;;;;;7.50;6.90;;;;;;;21.27;84.61;100938.97;5032816;28;20643;-73
2021/06/10 08:05:38;;;;;;;5.30;4.90;;;;;;;21.16;82.30;100937.16;5050172;28;20179;-72
2021/06/10 08:08:04;;;;;;;6.83;6.23;;;;;;;21.16;84.36;100943.53;5049949;28;20266;-73
2021/06/10 08:10:29;;;;;;;6.37;5.87;;;;;;;21.20;82.13;100944.38;5050532;28;20535;-74
2021/06/10 08:12:55;;;;;;;6.30;5.90;;;;;;;21.21;82.06;100947.97;5050242;28;20175;-74
2021/06/10 08:15:20;;;;;;;5.93;5.43;;;;;;;21.17;81.57;100945.13;5050188;28;20177;-74
2021/06/10 08:17:47;;;;;;;6.83;6.23;;;;;;;21.16;80.22;100939.94;5050175;28;20393;-74
2021/06/10 08:20:13;;;;;;;7.33;6.83;;;;;;;21.21;80.42;100945.97;5050507;28;20187;-74
2021/06/10 08:22:39;;;;;;;7.80;6.83;;;;;;;21.31;81.60;100953.72;5049818;28;20222;-73
2021/06/10 08:25:07;;;;;;;5.43;4.97;;;;;;;21.39;81.23;100951.84;5050475;28;20183;-73
2021/06/10 08:27:32;;;;;;;7.30;6.73;;;;;;;21.43;81.62;100951.94;5049792;28;20168;-73
2021/06/10 08:29:57;;;;;;;7.27;6.67;;;;;;;21.58;80.20;100949.00;5050101;28;20267;-74
2021/06/10 08:32:23;;;;;;;8.73;7.93;;;;;;;21.70;78.80;100945.22;5049940;28;20183;-74
2021/06/10 08:34:48;;;;;;;8.43;7.73;;;;;;;21.75;77.63;100949.66;5049941;28;20175;-74
2021/06/10 08:37:14;;;;;;;7.43;6.93;;;;;;;21.71;76.99;100951.56;5049562;28;20546;-74
2021/06/10 08:39:39;;;;;;;6.73;6.23;;;;;;;21.76;79.54;100952.03;5056464;28;20245;-73
2021/06/10 08:42:05;;;;;;;8.30;7.70;;;;;;;21.77;79.21;100950.06;5051937;28;20195;-78
2021/06/10 08:44:32;;;;;;;8.87;7.97;;;;;;;21.79;77.36;100951.28;5050123;28;20670;-79
2021/06/10 08:47:00;;;;;;;6.97;6.43;;;;;;;21.82;77.97;100953.31;5049975;28;20179;-72
2021/06/10 08:49:26;;;;;;;7.83;7.30;;;;;;;21.95;77.87;100956.69;5050016;28;20179;-73
2021/06/10 08:51:51;;;;;;;8.07;7.47;;;;;;;21.92;76.05;100955.47;5049096;28;20179;-72
2021/06/10 08:54:17;;;;;;;9.23;8.60;;;;;;;21.98;75.31;100959.50;5060654;28;20198;-73
2021/06/10 08:56:43;;;;;;;7.37;6.87;;;;;;;22.05;76.02;100952.44;5048475;28;20179;-72
2021/06/10 08:59:11;;;;;;;8.97;8.27;;;;;;;22.17;76.64;100966.16;5049943;28;20172;-72
2021/06/10 09:01:37;;;;;;;7.73;7.20;;;;;;;22.37;75.14;100958.47;5049652;28;20216;-72
2021/06/10 09:04:04;;;;;;;9.37;8.67;;;;;;;22.45;74.39;100962.94;5050530;28;20657;-72
2021/06/10 09:06:45;;;;;;;4.67;4.37;;;;;;;22.43;73.67;100966.13;5053148;28;20263;-72
2021/06/10 09:09:10;;;;;;;7.40;6.80;;;;;;;22.58;74.61;100960.72;5053436;28;20233;-72
2021/06/10 09:11:38;;;;;;;8.87;8.20;;;;;;;22.58;73.32;100964.31;5053305;28;20181;-70
2021/06/10 09:14:08;;;;;;;9.07;8.37;;;;;;;22.73;72.30;100952.13;5053357;28;20184;-72
2021/06/10 09:16:36;;;;;;;9.53;8.93;;;;;;;22.81;72.59;100941.84;5052938;28;20176;-72
2021/06/10 09:19:09;;;;;;;6.20;5.77;;;;;;;22.92;72.75;100948.38;5053137;28;20173;-72
2021/06/10 09:21:44;;;;;;;6.23;5.77;;;;;;;22.89;72.86;100954.72;5053288;28;20214;-72
2021/06/10 09:24:23;;;;;;;8.57;7.97;;;;;;;22.94;71.27;100954.34;5053250;28;20207;-73
2021/06/10 09:27:07;;;;;;;7.60;7.00;;;;;;;23.01;69.28;100962.00;5052840;28;20166;-73
2021/06/10 09:29:42;;;;;;;5.80;5.40;;;;;;;23.11;68.63;100966.84;5052960;28;20179;-72
2021/06/10 09:32:23;;;;;;;8.27;7.57;;;;;;;23.17;70.08;100961.75;5053092;28;20210;-72
2021/06/10 09:34:53;;;;;;;10.90;9.90;;;;;;;23.25;69.79;100966.19;5053014;28;20171;-73
2021/06/10 09:37:30;;;;;;;9.63;8.93;;;;;;;23.35;69.25;100963.50;5052811;28;20639;-73
2021/06/10 09:39:56;;;;;;;8.53;7.87;;;;;;;23.35;69.36;100962.69;5051406;28;20186;-73
2021/06/10 09:42:27;;;;;;;10.27;9.57;;;;;;;23.37;69.91;100957.53;5052765;28;20218;-72
2021/06/10 09:44:58;;;;;;;9.27;8.57;;;;;;;23.49;69.18;100951.66;5052878;28;20258;-70
2021/06/10 09:47:32;;;;;;;9.50;8.73;;;;;;;23.49;66.31;100948.88;5052793;28;20234;-71
2021/06/10 09:50:19;;;;;;;8.60;7.97;;;;;;;23.53;68.22;100958.06;5052952;28;20751;-70
2021/06/10 09:53:02;;;;;;;8.53;7.93;;;;;;;23.61;67.74;100956.16;5052910;28;20174;-70
2021/06/10 09:55:27;;;;;;;8.67;7.90;;;;;;;23.60;66.60;100955.34;5052642;28;20526;-73
2021/06/10 09:57:55;;;;;;;9.10;8.47;;;;;;;23.51;65.07;100956.84;5052359;28;20254;-72
2021/06/10 10:00:25;;;;;;;7.90;7.30;;;;;;;23.57;64.72;100955.28;5052009;28;20190;-73
2021/06/10 10:02:50;;;;;;;8.33;7.73;;;;;;;23.63;67.63;100954.56;5084260;28;20260;-72
2021/06/10 10:05:16;;;;;;;8.47;7.50;;;;;;;23.54;65.44;100951.28;5038477;28;20724;-72
2021/06/10 10:07:41;;;;;;;8.07;7.47;;;;;;;23.62;66.67;100955.78;5063605;28;20692;-73
2021/06/10 10:10:08;;;;;;;10.23;9.53;;;;;;;23.71;67.15;100947.84;5072406;28;20318;-73
2021/06/10 10:12:39;;;;;;;8.83;8.23;;;;;;;23.81;64.90;100956.69;5072777;28;20189;-74
2021/06/10 10:15:05;;;;;;;10.77;9.93;;;;;;;23.86;65.39;100956.31;5054477;28;20171;-73
2021/06/10 10:17:31;;;;;;;9.13;8.43;;;;;;;23.87;60.66;100946.75;5052478;28;20176;-73
2021/06/10 10:19:56;;;;;;;9.10;8.50;;;;;;;23.91;58.34;100953.16;5052886;28;20175;-70
2021/06/10 10:22:23;;;;;;;10.77;9.97;;;;;;;23.83;58.36;100949.50;5052437;28;20570;-72
2021/06/10 10:24:53;;;;;;;11.07;10.17;;;;;;;23.86;58.94;100945.94;5052488;28;20579;-72
2021/06/10 10:27:19;;;;;;;11.07;10.17;;;;;;;23.98;58.27;100944.81;5052527;28;20210;-71
2021/06/10 10:29:45;;;;;;;9.67;8.97;;;;;;;23.98;59.07;100953.19;5052469;28;20584;-71
2021/06/10 10:32:25;;;;;;;10.53;9.73;;;;;;;23.95;61.47;100951.19;5034484;28;20182;-71
2021/06/10 10:34:51;;;;;;;10.10;9.40;;;;;;;24.13;62.22;100945.69;5052488;28;20178;-71
2021/06/10 10:37:20;;;;;;;10.87;10.07;;;;;;;24.23;59.64;100947.75;5067429;28;20277;-71
2021/06/10 10:39:47;;;;;;;9.70;9.00;;;;;;;24.28;61.68;100950.94;5052194;28;20185;-71
2021/06/10 10:42:33;;;;;;;10.27;9.53;;;;;;;24.23;58.86;100947.75;5052213;28;20228;-72
2021/06/10 10:45:25;;;;;;;9.90;9.13;;;;;;;24.11;58.50;100946.09;5034351;28;20182;-71
2021/06/10 10:48:07;;;;;;;9.60;8.93;;;;;;;24.12;60.01;100941.31;5041407;28;20820;-72
2021/06/10 10:50:41;;;;;;;9.33;8.70;;;;;;;24.27;61.11;100937.38;5051859;28;20164;-72
2021/06/10 10:53:18;;;;;;;9.63;8.93;;;;;;;24.43;59.20;100937.06;5051919;28;20259;-72
2021/06/10 10:55:45;;;;;;;8.90;8.30;;;;;;;24.41;58.51;100923.50;5051925;28;20619;-74
2021/06/10 10:58:20;;;;;;;8.83;8.03;;;;;;;24.35;57.76;100939.06;5051638;28;20178;-74
2021/06/10 11:00:53;;;;;;;6.93;6.47;;;;;;;24.41;58.73;100933.88;5051458;28;20210;-73
2021/06/10 11:03:40;;;;;;;6.20;5.80;;;;;;;24.52;55.33;100940.31;5061437;28;20210;-73
2021/06/10 11:06:20;;;;;;;6.43;5.90;;;;;;;24.56;55.26;100933.53;5071318;28;20259;-73
2021/06/10 11:09:15;;;;;;;7.77;7.17;;;;;;;24.50;57.38;100935.09;5053754;28;20182;-73
2021/06/10 11:12:04;;;;;;;7.40;6.90;;;;;;;24.59;55.13;100929.13;5071565;28;20166;-71
2021/06/10 11:14:38;;;;;;;6.17;5.77;;;;;;;24.75;58.17;100924.00;5053181;28;20215;-71
2021/06/10 11:17:17;;;;;;;7.37;6.77;;;;;;;24.80;54.15;100925.59;5033583;28;20600;-71
2021/06/10 11:20:01;;;;;;;7.57;7.07;;;;;;;24.75;53.36;100926.78;5066719;28;20170;-71
2021/06/10 11:22:41;;;;;;;6.57;6.17;;;;;;;24.63;52.46;100924.38;5051230;28;20214;-73
2021/06/10 11:25:26;;;;;;;4.20;4.00;;;;;;;24.78;51.29;100922.41;5051364;28;20171;-73